sensor_id;sensor_type;location;lat;lon;timestamp;pressure;altitude;pressure_sealevel;temperature;humidity
59367;BME280;45163;47.690;11.770;2023-04-23T00:00:20;92799.75;;;9.48;100.00
59367;BME280;45163;47.690;11.770;2023-04-23T00:02:47;92799.44;;;9.46;100.00
59367;BME280;45163;47.690;11.770;2023-04-23T00:05:31;92790.81;;;9.48;100.00
59367;BME280;45163;47.690;11.770;2023-04-23T00:07:59;92788.19;;;9.44;100.00
59367;BME280;45163;47.690;11.770;2023-04-23T00:10:25;92779.91;;;9.48;100.00
59367;BME280;45163;47.690;11.770;2023-04-23T00:12:52;92779.88;;;9.61;100.00
59367;BME280;45163;47.690;11.770;2023-04-23T00:15:18;92775.88;;;9.53;100.00
59367;BME280;45163;47.690;11.770;2023-04-23T00:17:47;92775.44;;;9.54;100.00
59367;BME280;45163;47.690;11.770;2023-04-23T00:20:14;92772.38;;;9.52;100.00
59367;BME280;45163;47.690;11.770;2023-04-23T00:22:42;92777.50;;;9.63;100.00
59367;BME280;45163;47.690;11.770;2023-04-23T00:25:09;92767.06;;;9.83;100.00
59367;BME280;45163;47.690;11.770;2023-04-23T00:27:36;92755.41;;;9.83;100.00
59367;BME280;45163;47.690;11.770;2023-04-23T00:30:03;92759.13;;;9.76;100.00
59367;BME280;45163;47.690;11.770;2023-04-23T00:32:29;92750.88;;;9.67;100.00
59367;BME280;45163;47.690;11.770;2023-04-23T00:34:55;92754.47;;;9.64;100.00
59367;BME280;45163;47.690;11.770;2023-04-23T00:37:21;92752.63;;;9.61;100.00
59367;BME280;45163;47.690;11.770;2023-04-23T00:39:47;92747.44;;;9.54;100.00
59367;BME280;45163;47.690;11.770;2023-04-23T00:42:13;92754.97;;;9.50;100.00
59367;BME280;45163;47.690;11.770;2023-04-23T00:44:42;92756.72;;;9.43;100.00
59367;BME280;45163;47.690;11.770;2023-04-23T00:47:08;92749.75;;;9.42;100.00
59367;BME280;45163;47.690;11.770;2023-04-23T00:49:35;92746.41;;;9.38;100.00
59367;BME280;45163;47.690;11.770;2023-04-23T00:52:02;92747.22;;;9.48;100.00
59367;BME280;45163;47.690;11.770;2023-04-23T00:54:28;92742.38;;;9.65;100.00
59367;BME280;45163;47.690;11.770;2023-04-23T00:56:54;92744.66;;;9.66;100.00
59367;BME280;45163;47.690;11.770;2023-04-23T00:59:30;92744.34;;;9.64;100.00
59367;BME280;45163;47.690;11.770;2023-04-23T01:01:56;92741.88;;;9.57;100.00
59367;BME280;45163;47.690;11.770;2023-04-23T01:04:24;92753.69;;;9.41;100.00
59367;BME280;45163;47.690;11.770;2023-04-23T01:06:52;92752.41;;;9.33;100.00
59367;BME280;45163;47.690;11.770;2023-04-23T01:09:19;92753.38;;;9.27;100.00
59367;BME280;45163;47.690;11.770;2023-04-23T01:11:45;92755.16;;;9.20;100.00
59367;BME280;45163;47.690;11.770;2023-04-23T01:14:11;92756.06;;;9.05;100.00
59367;BME280;45163;47.690;11.770;2023-04-23T01:16:38;92752.34;;;8.98;100.00
59367;BME280;45163;47.690;11.770;2023-04-23T01:19:08;92763.25;;;8.86;100.00
59367;BME280;45163;47.690;11.770;2023-04-23T01:21:35;92756.84;;;8.80;100.00
59367;BME280;45163;47.690;11.770;2023-04-23T01:24:03;92752.16;;;8.80;100.00
59367;BME280;45163;47.690;11.770;2023-04-23T01:26:33;92750.84;;;8.72;100.00
59367;BME280;45163;47.690;11.770;2023-04-23T01:29:00;92754.88;;;8.67;100.00
59367;BME280;45163;47.690;11.770;2023-04-23T01:31:26;92752.81;;;8.59;100.00
59367;BME280;45163;47.690;11.770;2023-04-23T01:33:53;92759.34;;;8.61;100.00
59367;BME280;45163;47.690;11.770;2023-04-23T01:36:22;92756.28;;;8.59;100.00
59367;BME280;45163;47.690;11.770;2023-04-23T01:38:48;92749.00;;;8.56;100.00
59367;BME280;45163;47.690;11.770;2023-04-23T01:41:14;92747.81;;;8.57;100.00
59367;BME280;45163;47.690;11.770;2023-04-23T01:43:41;92757.91;;;8.57;100.00
59367;BME280;45163;47.690;11.770;2023-04-23T01:46:08;92750.75;;;8.63;100.00
59367;BME280;45163;47.690;11.770;2023-04-23T01:48:36;92748.25;;;8.68;100.00
59367;BME280;45163;47.690;11.770;2023-04-23T01:51:02;92742.78;;;8.68;100.00
59367;BME280;45163;47.690;11.770;2023-04-23T01:53:28;92741.06;;;8.49;100.00
59367;BME280;45163;47.690;11.770;2023-04-23T01:55:55;92732.03;;;8.39;100.00
59367;BME280;45163;47.690;11.770;2023-04-23T01:58:24;92726.13;;;8.28;100.00
59367;BME280;45163;47.690;11.770;2023-04-23T02:00:50;92722.75;;;8.24;100.00
59367;BME280;45163;47.690;11.770;2023-04-23T02:03:16;92725.03;;;8.26;100.00
59367;BME280;45163;47.690;11.770;2023-04-23T02:05:43;92730.47;;;8.26;100.00
59367;BME280;45163;47.690;11.770;2023-04-23T02:08:09;92737.47;;;8.39;100.00
59367;BME280;45163;47.690;11.770;2023-04-23T02:10:35;92740.31;;;8.48;100.00
59367;BME280;45163;47.690;11.770;2023-04-23T02:13:01;92740.31;;;8.61;100.00
59367;BME280;45163;47.690;11.770;2023-04-23T02:15:28;92733.78;;;8.59;100.00
59367;BME280;45163;47.690;11.770;2023-04-23T02:17:54;92736.06;;;8.47;100.00
59367;BME280;45163;47.690;11.770;2023-04-23T02:20:20;92728.66;;;8.48;100.00
59367;BME280;45163;47.690;11.770;2023-04-23T02:22:47;92723.44;;;8.41;100.00
59367;BME280;45163;47.690;11.770;2023-04-23T02:25:14;92727.88;;;8.47;100.00
59367;BME280;45163;47.690;11.770;2023-04-23T02:27:41;92731.06;;;8.59;100.00
59367;BME280;45163;47.690;11.770;2023-04-23T02:30:08;92732.03;;;8.65;100.00
59367;BME280;45163;47.690;11.770;2023-04-23T02:32:36;92722.78;;;8.62;100.00
59367;BME280;45163;47.690;11.770;2023-04-23T02:35:03;92726.47;;;8.68;100.00
59367;BME280;45163;47.690;11.770;2023-04-23T02:37:35;92727.56;;;8.71;100.00
59367;BME280;45163;47.690;11.770;2023-04-23T02:40:02;92725.28;;;8.69;100.00
59367;BME280;45163;47.690;11.770;2023-04-23T02:42:31;92730.28;;;8.71;100.00
59367;BME280;45163;47.690;11.770;2023-04-23T02:44:57;92729.75;;;8.63;100.00
59367;BME280;45163;47.690;11.770;2023-04-23T02:47:23;92734.88;;;8.61;100.00
59367;BME280;45163;47.690;11.770;2023-04-23T02:49:49;92727.47;;;8.62;100.00
59367;BME280;45163;47.690;11.770;2023-04-23T02:52:15;92726.56;;;8.65;100.00
59367;BME280;45163;47.690;11.770;2023-04-23T02:54:41;92722.69;;;8.66;100.00
59367;BME280;45163;47.690;11.770;2023-04-23T02:57:07;92722.69;;;8.66;100.00
59367;BME280;45163;47.690;11.770;2023-04-23T02:59:33;92724.41;;;8.60;100.00
59367;BME280;45163;47.690;11.770;2023-04-23T03:01:59;92726.06;;;8.57;100.00
59367;BME280;45163;47.690;11.770;2023-04-23T03:04:25;92724.84;;;8.58;100.00
59367;BME280;45163;47.690;11.770;2023-04-23T03:06:52;92733.97;;;8.52;100.00
59367;BME280;45163;47.690;11.770;2023-04-23T03:09:18;92728.88;;;8.54;100.00
59367;BME280;45163;47.690;11.770;2023-04-23T03:11:44;92736.16;;;8.57;100.00
59367;BME280;45163;47.690;11.770;2023-04-23T03:14:10;92733.22;;;8.51;100.00
59367;BME280;45163;47.690;11.770;2023-04-23T03:16:36;92736.38;;;8.50;100.00
59367;BME280;45163;47.690;11.770;2023-04-23T03:19:02;92733.44;;;8.44;100.00
59367;BME280;45163;47.690;11.770;2023-04-23T03:21:28;92742.03;;;8.42;100.00
59367;BME280;45163;47.690;11.770;2023-04-23T03:23:54;92747.28;;;8.50;100.00
59367;BME280;45163;47.690;11.770;2023-04-23T03:26:21;92746.72;;;8.55;100.00
59367;BME280;45163;47.690;11.770;2023-04-23T03:28:49;92739.00;;;8.53;100.00
59367;BME280;45163;47.690;11.770;2023-04-23T03:31:15;92745.97;;;8.54;100.00
59367;BME280;45163;47.690;11.770;2023-04-23T03:33:41;92741.59;;;8.57;100.00
59367;BME280;45163;47.690;11.770;2023-04-23T03:36:07;92750.00;;;8.62;100.00
59367;BME280;45163;47.690;11.770;2023-04-23T03:38:33;92744.97;;;8.73;100.00
59367;BME280;45163;47.690;11.770;2023-04-23T03:40:59;92739.75;;;8.66;100.00
59367;BME280;45163;47.690;11.770;2023-04-23T03:43:25;92737.25;;;8.72;100.00
59367;BME280;45163;47.690;11.770;2023-04-23T03:45:51;92738.34;;;8.62;100.00
59367;BME280;45163;47.690;11.770;2023-04-23T03:48:17;92732.16;;;8.61;100.00
59367;BME280;45163;47.690;11.770;2023-04-23T03:50:43;92722.22;;;8.67;100.00
59367;BME280;45163;47.690;11.770;2023-04-23T03:53:09;92729.00;;;8.63;100.00
59367;BME280;45163;47.690;11.770;2023-04-23T03:55:35;92726.56;;;8.65;100.00
59367;BME280;45163;47.690;11.770;2023-04-23T03:58:01;92724.84;;;8.58;100.00
59367;BME280;45163;47.690;11.770;2023-04-23T04:00:28;92731.16;;;8.55;100.00
59367;BME280;45163;47.690;11.770;2023-04-23T04:02:53;92731.06;;;8.71;100.00
59367;BME280;45163;47.690;11.770;2023-04-23T04:05:21;92730.06;;;8.78;100.00
59367;BME280;45163;47.690;11.770;2023-04-23T04:07:47;92729.28;;;8.78;100.00
59367;BME280;45163;47.690;11.770;2023-04-23T04:10:13;92721.56;;;8.76;100.00
59367;BME280;45163;47.690;11.770;2023-04-23T04:12:39;92732.34;;;8.80;100.00
59367;BME280;45163;47.690;11.770;2023-04-23T04:15:07;92733.19;;;8.89;100.00
59367;BME280;45163;47.690;11.770;2023-04-23T04:17:33;92737.34;;;8.81;100.00
59367;BME280;45163;47.690;11.770;2023-04-23T04:19:59;92734.31;;;8.79;100.00
59367;BME280;45163;47.690;11.770;2023-04-23T04:22:25;92735.53;;;8.78;100.00
59367;BME280;45163;47.690;11.770;2023-04-23T04:24:51;92731.25;;;8.77;100.00
59367;BME280;45163;47.690;11.770;2023-04-23T04:27:17;92740.41;;;8.70;100.00
59367;BME280;45163;47.690;11.770;2023-04-23T04:29:43;92748.78;;;8.76;100.00
59367;BME280;45163;47.690;11.770;2023-04-23T04:32:09;92751.19;;;8.74;100.00
59367;BME280;45163;47.690;11.770;2023-04-23T04:34:36;92760.66;;;8.69;100.00
59367;BME280;45163;47.690;11.770;2023-04-23T04:37:03;92759.78;;;8.72;100.00
59367;BME280;45163;47.690;11.770;2023-04-23T04:39:29;92758.81;;;8.79;100.00
59367;BME280;45163;47.690;11.770;2023-04-23T04:41:55;92759.66;;;8.76;100.00
59367;BME280;45163;47.690;11.770;2023-04-23T04:44:22;92761.84;;;8.81;100.00
59367;BME280;45163;47.690;11.770;2023-04-23T04:46:48;92762.38;;;8.89;100.00
59367;BME280;45163;47.690;11.770;2023-04-23T04:49:14;92768.59;;;8.89;100.00
59367;BME280;45163;47.690;11.770;2023-04-23T04:51:40;92765.84;;;8.89;100.00
59367;BME280;45163;47.690;11.770;2023-04-23T04:54:07;92771.66;;;8.91;100.00
59367;BME280;45163;47.690;11.770;2023-04-23T04:56:33;92776.19;;;8.82;100.00
59367;BME280;45163;47.690;11.770;2023-04-23T04:59:00;92786.66;;;8.83;100.00
59367;BME280;45163;47.690;11.770;2023-04-23T05:01:29;92788.38;;;8.90;100.00
59367;BME280;45163;47.690;11.770;2023-04-23T05:03:56;92789.28;;;8.87;100.00
59367;BME280;45163;47.690;11.770;2023-04-23T05:06:22;92790.34;;;8.89;100.00
59367;BME280;45163;47.690;11.770;2023-04-23T05:08:48;92797.56;;;8.96;100.00
59367;BME280;45163;47.690;11.770;2023-04-23T05:11:18;92803.97;;;8.89;100.00
59367;BME280;45163;47.690;11.770;2023-04-23T05:13:45;92798.19;;;9.00;100.00
59367;BME280;45163;47.690;11.770;2023-04-23T05:16:12;92802.34;;;9.05;100.00
59367;BME280;45163;47.690;11.770;2023-04-23T05:18:39;92804.84;;;8.99;100.00
59367;BME280;45163;47.690;11.770;2023-04-23T05:21:06;92807.88;;;9.01;100.00
59367;BME280;45163;47.690;11.770;2023-04-23T05:23:33;92819.75;;;9.07;100.00
59367;BME280;45163;47.690;11.770;2023-04-23T05:25:59;92829.44;;;9.08;100.00
59367;BME280;45163;47.690;11.770;2023-04-23T05:28:29;92835.88;;;9.02;100.00
59367;BME280;45163;47.690;11.770;2023-04-23T05:30:55;92835.00;;;9.05;100.00
59367;BME280;45163;47.690;11.770;2023-04-23T05:33:22;92845.03;;;9.08;100.00
59367;BME280;45163;47.690;11.770;2023-04-23T05:35:48;92840.88;;;9.03;100.00
59367;BME280;45163;47.690;11.770;2023-04-23T05:38:14;92846.66;;;9.05;100.00
59367;BME280;45163;47.690;11.770;2023-04-23T05:40:39;92856.03;;;9.04;100.00
59367;BME280;45163;47.690;11.770;2023-04-23T05:43:05;92860.16;;;9.09;100.00
59367;BME280;45163;47.690;11.770;2023-04-23T05:45:31;92857.22;;;9.03;100.00
59367;BME280;45163;47.690;11.770;2023-04-23T05:47:57;92867.97;;;8.94;100.00
59367;BME280;45163;47.690;11.770;2023-04-23T05:50:24;92866.47;;;8.93;100.00
59367;BME280;45163;47.690;11.770;2023-04-23T05:52:50;92880.06;;;8.93;100.00
59367;BME280;45163;47.690;11.770;2023-04-23T05:55:16;92882.47;;;8.91;100.00
59367;BME280;45163;47.690;11.770;2023-04-23T05:57:43;92889.00;;;8.93;100.00
59367;BME280;45163;47.690;11.770;2023-04-23T06:00:09;92897.91;;;8.94;100.00
59367;BME280;45163;47.690;11.770;2023-04-23T06:02:37;92899.97;;;8.77;100.00
59367;BME280;45163;47.690;11.770;2023-04-23T06:05:04;92900.28;;;8.66;100.00
59367;BME280;45163;47.690;11.770;2023-04-23T06:07:31;92894.41;;;8.68;100.00
59367;BME280;45163;47.690;11.770;2023-04-23T06:09:57;92896.56;;;8.73;100.00
59367;BME280;45163;47.690;11.770;2023-04-23T06:12:23;92899.63;;;8.75;100.00
59367;BME280;45163;47.690;11.770;2023-04-23T06:14:49;92893.53;;;8.71;100.00
59367;BME280;45163;47.690;11.770;2023-04-23T06:17:15;92895.41;;;8.87;100.00
59367;BME280;45163;47.690;11.770;2023-04-23T06:19:41;92896.75;;;8.95;100.00
59367;BME280;45163;47.690;11.770;2023-04-23T06:22:07;92893.69;;;8.93;100.00
59367;BME280;45163;47.690;11.770;2023-04-23T06:24:34;92893.69;;;8.93;100.00
59367;BME280;45163;47.690;11.770;2023-04-23T06:27:00;92886.63;;;8.95;100.00
59367;BME280;45163;47.690;11.770;2023-04-23T06:29:27;92884.75;;;9.05;100.00
59367;BME280;45163;47.690;11.770;2023-04-23T06:31:54;92882.91;;;9.15;100.00
59367;BME280;45163;47.690;11.770;2023-04-23T06:34:21;92886.38;;;9.15;100.00
59367;BME280;45163;47.690;11.770;2023-04-23T06:36:49;92880.72;;;9.35;100.00
59367;BME280;45163;47.690;11.770;2023-04-23T06:39:15;92883.66;;;9.54;100.00
59367;BME280;45163;47.690;11.770;2023-04-23T06:41:41;92878.94;;;9.67;100.00
59367;BME280;45163;47.690;11.770;2023-04-23T06:44:07;92880.53;;;9.90;100.00
59367;BME280;45163;47.690;11.770;2023-04-23T06:46:33;92872.84;;;10.10;100.00
59367;BME280;45163;47.690;11.770;2023-04-23T06:48:59;92884.69;;;10.29;100.00
59367;BME280;45163;47.690;11.770;2023-04-23T06:51:25;92883.69;;;10.23;100.00
59367;BME280;45163;47.690;11.770;2023-04-23T06:53:54;92870.25;;;10.41;100.00
59367;BME280;45163;47.690;11.770;2023-04-23T06:56:20;92876.13;;;10.62;100.00
59367;BME280;45163;47.690;11.770;2023-04-23T06:58:46;92870.56;;;10.96;100.00
59367;BME280;45163;47.690;11.770;2023-04-23T07:01:12;92864.66;;;10.98;100.00
59367;BME280;45163;47.690;11.770;2023-04-23T07:03:39;92861.25;;;11.16;100.00
59367;BME280;45163;47.690;11.770;2023-04-23T07:06:05;92861.34;;;11.43;100.00
59367;BME280;45163;47.690;11.770;2023-04-23T07:08:31;92870.31;;;11.84;100.00
59367;BME280;45163;47.690;11.770;2023-04-23T07:10:57;92862.72;;;11.98;100.00
59367;BME280;45163;47.690;11.770;2023-04-23T07:13:23;92863.03;;;12.09;100.00
59367;BME280;45163;47.690;11.770;2023-04-23T07:15:49;92856.63;;;11.93;100.00
59367;BME280;45163;47.690;11.770;2023-04-23T07:18:15;92856.16;;;11.95;100.00
59367;BME280;45163;47.690;11.770;2023-04-23T07:20:42;92851.16;;;11.93;100.00
59367;BME280;45163;47.690;11.770;2023-04-23T07:23:08;92848.75;;;11.95;100.00
59367;BME280;45163;47.690;11.770;2023-04-23T07:25:34;92839.13;;;11.82;100.00
59367;BME280;45163;47.690;11.770;2023-04-23T07:28:00;92828.94;;;11.82;100.00
59367;BME280;45163;47.690;11.770;2023-04-23T07:30:26;92820.31;;;11.84;100.00
59367;BME280;45163;47.690;11.770;2023-04-23T07:32:53;92830.91;;;11.82;100.00
59367;BME280;45163;47.690;11.770;2023-04-23T07:35:20;92825.78;;;11.93;100.00
59367;BME280;45163;47.690;11.770;2023-04-23T07:37:46;92824.09;;;12.60;100.00
59367;BME280;45163;47.690;11.770;2023-04-23T07:40:12;92834.16;;;13.14;100.00
59367;BME280;45163;47.690;11.770;2023-04-23T07:42:38;92843.28;;;13.54;100.00
59367;BME280;45163;47.690;11.770;2023-04-23T07:45:05;92837.56;;;13.76;100.00
59367;BME280;45163;47.690;11.770;2023-04-23T07:47:31;92820.19;;;13.69;100.00
59367;BME280;45163;47.690;11.770;2023-04-23T07:49:57;92826.13;;;14.16;100.00
59367;BME280;45163;47.690;11.770;2023-04-23T07:52:23;92808.56;;;14.37;100.00
59367;BME280;45163;47.690;11.770;2023-04-23T07:54:49;92806.25;;;14.21;100.00
59367;BME280;45163;47.690;11.770;2023-04-23T07:57:15;92800.28;;;14.08;100.00
59367;BME280;45163;47.690;11.770;2023-04-23T07:59:41;92806.00;;;14.19;100.00
59367;BME280;45163;47.690;11.770;2023-04-23T08:02:07;92804.94;;;14.16;100.00
59367;BME280;45163;47.690;11.770;2023-04-23T08:04:33;92799.19;;;14.29;100.00
59367;BME280;45163;47.690;11.770;2023-04-23T08:06:59;92801.59;;;14.12;100.00
59367;BME280;45163;47.690;11.770;2023-04-23T08:09:25;92803.03;;;14.08;100.00
59367;BME280;45163;47.690;11.770;2023-04-23T08:11:51;92790.91;;;13.52;100.00
59367;BME280;45163;47.690;11.770;2023-04-23T08:14:17;92799.41;;;13.20;100.00
59367;BME280;45163;47.690;11.770;2023-04-23T08:16:43;92797.13;;;13.19;100.00
59367;BME280;45163;47.690;11.770;2023-04-23T08:19:10;92808.72;;;13.14;100.00
59367;BME280;45163;47.690;11.770;2023-04-23T08:21:36;92807.50;;;13.15;100.00
59367;BME280;45163;47.690;11.770;2023-04-23T08:24:04;92803.78;;;12.94;100.00
59367;BME280;45163;47.690;11.770;2023-04-23T08:26:32;92797.16;;;12.67;100.00
59367;BME280;45163;47.690;11.770;2023-04-23T08:28:58;92803.69;;;12.61;100.00
59367;BME280;45163;47.690;11.770;2023-04-23T08:31:25;92797.91;;;12.68;100.00
59367;BME280;45163;47.690;11.770;2023-04-23T08:33:52;92800.84;;;12.55;100.00
59367;BME280;45163;47.690;11.770;2023-04-23T08:36:18;92798.69;;;12.59;100.00
59367;BME280;45163;47.690;11.770;2023-04-23T08:38:44;92797.84;;;12.26;100.00
59367;BME280;45163;47.690;11.770;2023-04-23T08:41:12;92806.50;;;12.06;100.00
59367;BME280;45163;47.690;11.770;2023-04-23T08:43:52;92813.78;;;11.90;100.00
59367;BME280;45163;47.690;11.770;2023-04-23T08:46:24;92816.66;;;11.87;100.00
59367;BME280;45163;47.690;11.770;2023-04-23T08:48:54;92818.34;;;11.93;100.00
59367;BME280;45163;47.690;11.770;2023-04-23T08:51:22;92821.09;;;11.93;100.00
59367;BME280;45163;47.690;11.770;2023-04-23T08:53:55;92814.34;;;11.76;100.00
59367;BME280;45163;47.690;11.770;2023-04-23T08:56:26;92814.78;;;11.65;100.00
59367;BME280;45163;47.690;11.770;2023-04-23T08:58:52;92820.09;;;11.60;100.00
59367;BME280;45163;47.690;11.770;2023-04-23T09:01:18;92823.72;;;11.57;100.00
59367;BME280;45163;47.690;11.770;2023-04-23T09:03:45;92826.78;;;11.59;100.00
59367;BME280;45163;47.690;11.770;2023-04-23T09:06:11;92836.03;;;11.52;100.00
59367;BME280;45163;47.690;11.770;2023-04-23T09:08:37;92827.81;;;11.43;100.00
59367;BME280;45163;47.690;11.770;2023-04-23T09:11:04;92817.47;;;11.38;100.00
59367;BME280;45163;47.690;11.770;2023-04-23T09:13:32;92822.50;;;11.48;100.00
59367;BME280;45163;47.690;11.770;2023-04-23T09:15:58;92814.94;;;11.62;100.00
59367;BME280;45163;47.690;11.770;2023-04-23T09:18:24;92816.47;;;11.72;100.00
59367;BME280;45163;47.690;11.770;2023-04-23T09:20:51;92819.41;;;11.87;100.00
59367;BME280;45163;47.690;11.770;2023-04-23T09:23:20;92812.25;;;11.99;100.00
59367;BME280;45163;47.690;11.770;2023-04-23T09:25:46;92807.88;;;12.10;100.00
59367;BME280;45163;47.690;11.770;2023-04-23T09:28:12;92799.47;;;12.32;100.00
59367;BME280;45163;47.690;11.770;2023-04-23T09:30:43;92799.19;;;12.30;100.00
59367;BME280;45163;47.690;11.770;2023-04-23T09:33:10;92803.44;;;12.31;100.00
59367;BME280;45163;47.690;11.770;2023-04-23T09:35:37;92794.03;;;12.14;100.00
59367;BME280;45163;47.690;11.770;2023-04-23T09:38:03;92802.09;;;12.08;100.00
59367;BME280;45163;47.690;11.770;2023-04-23T09:40:32;92793.28;;;12.13;100.00
59367;BME280;45163;47.690;11.770;2023-04-23T09:43:02;92791.59;;;12.16;100.00
59367;BME280;45163;47.690;11.770;2023-04-23T09:45:29;92795.22;;;12.31;100.00
59367;BME280;45163;47.690;11.770;2023-04-23T09:47:56;92795.84;;;12.35;100.00
59367;BME280;45163;47.690;11.770;2023-04-23T09:50:36;92795.38;;;12.46;100.00
59367;BME280;45163;47.690;11.770;2023-04-23T09:53:04;92788.06;;;12.43;100.00
59367;BME280;45163;47.690;11.770;2023-04-23T09:55:32;92782.75;;;12.39;100.00
59367;BME280;45163;47.690;11.770;2023-04-23T09:58:04;92781.53;;;12.40;100.00
59367;BME280;45163;47.690;11.770;2023-04-23T10:00:35;92784.56;;;12.52;100.00
59367;BME280;45163;47.690;11.770;2023-04-23T10:03:02;92782.13;;;12.63;100.00
59367;BME280;45163;47.690;11.770;2023-04-23T10:05:28;92769.34;;;12.60;100.00
59367;BME280;45163;47.690;11.770;2023-04-23T10:07:55;92765.03;;;12.77;100.00
59367;BME280;45163;47.690;11.770;2023-04-23T10:10:24;92762.50;;;12.98;100.00
59367;BME280;45163;47.690;11.770;2023-04-23T10:12:52;92761.22;;;13.17;100.00
59367;BME280;45163;47.690;11.770;2023-04-23T10:15:19;92751.25;;;13.38;100.00
59367;BME280;45163;47.690;11.770;2023-04-23T10:17:46;92740.16;;;13.56;100.00
59367;BME280;45163;47.690;11.770;2023-04-23T10:20:15;92739.72;;;13.73;100.00
59367;BME280;45163;47.690;11.770;2023-04-23T10:22:43;92736.25;;;14.26;100.00
59367;BME280;45163;47.690;11.770;2023-04-23T10:25:10;92724.09;;;15.06;100.00
59367;BME280;45163;47.690;11.770;2023-04-23T10:27:41;92707.13;;;15.84;100.00
59367;BME280;45163;47.690;11.770;2023-04-23T10:30:09;92693.84;;;16.29;100.00
59367;BME280;45163;47.690;11.770;2023-04-23T10:32:36;92690.69;;;16.93;100.00
59367;BME280;45163;47.690;11.770;2023-04-23T10:35:04;92679.91;;;17.38;100.00
59367;BME280;45163;47.690;11.770;2023-04-23T10:37:31;92678.69;;;17.94;100.00
59367;BME280;45163;47.690;11.770;2023-04-23T10:40:04;92670.03;;;18.79;100.00
59367;BME280;45163;47.690;11.770;2023-04-23T10:42:34;92659.72;;;19.08;100.00
59367;BME280;45163;47.690;11.770;2023-04-23T10:45:00;92652.00;;;21.00;100.00
59367;BME280;45163;47.690;11.770;2023-04-23T10:47:26;92648.41;;;21.35;100.00
59367;BME280;45163;47.690;11.770;2023-04-23T10:49:52;92647.22;;;21.25;100.00
59367;BME280;45163;47.690;11.770;2023-04-23T10:52:18;92650.19;;;20.36;100.00
59367;BME280;45163;47.690;11.770;2023-04-23T10:54:56;92637.59;;;19.02;100.00
59367;BME280;45163;47.690;11.770;2023-04-23T10:57:24;92634.31;;;18.92;100.00
59367;BME280;45163;47.690;11.770;2023-04-23T10:59:52;92627.63;;;19.52;100.00
59367;BME280;45163;47.690;11.770;2023-04-23T11:02:19;92629.28;;;19.94;100.00
59367;BME280;45163;47.690;11.770;2023-04-23T11:04:57;92629.94;;;20.06;100.00
59367;BME280;45163;47.690;11.770;2023-04-23T11:07:32;92627.81;;;19.76;100.00
59367;BME280;45163;47.690;11.770;2023-04-23T11:10:09;92632.06;;;19.08;100.00
59367;BME280;45163;47.690;11.770;2023-04-23T11:12:38;92624.78;;;18.54;100.00
59367;BME280;45163;47.690;11.770;2023-04-23T11:15:15;92619.22;;;18.15;100.00
59367;BME280;45163;47.690;11.770;2023-04-23T11:20:14;92608.94;;;18.27;100.00
59367;BME280;45163;47.690;11.770;2023-04-23T11:22:50;92602.38;;;19.83;100.00
59367;BME280;45163;47.690;11.770;2023-04-23T11:25:23;92596.56;;;20.64;100.00
59367;BME280;45163;47.690;11.770;2023-04-23T11:27:50;92584.94;;;20.96;100.00
59367;BME280;45163;47.690;11.770;2023-04-23T11:30:19;92582.66;;;21.49;100.00
59367;BME280;45163;47.690;11.770;2023-04-23T11:32:48;92575.69;;;22.36;100.00
59367;BME280;45163;47.690;11.770;2023-04-23T11:35:18;92567.75;;;23.31;100.00
59367;BME280;45163;47.690;11.770;2023-04-23T11:37:45;92560.00;;;24.04;92.78
59367;BME280;45163;47.690;11.770;2023-04-23T11:40:17;92565.75;;;23.72;83.65
59367;BME280;45163;47.690;11.770;2023-04-23T11:42:50;92555.84;;;22.91;90.23
59367;BME280;45163;47.690;11.770;2023-04-23T11:47:47;92542.25;;;24.49;79.28
59367;BME280;45163;47.690;11.770;2023-04-23T11:50:19;92541.19;;;25.51;66.49
59367;BME280;45163;47.690;11.770;2023-04-23T11:52:46;92540.69;;;24.82;67.67
59367;BME280;45163;47.690;11.770;2023-04-23T11:55:12;92531.13;;;23.41;74.30
59367;BME280;45163;47.690;11.770;2023-04-23T11:57:45;92536.06;;;22.49;82.37
59367;BME280;45163;47.690;11.770;2023-04-23T12:00:21;92522.31;;;23.76;72.53
59367;BME280;45163;47.690;11.770;2023-04-23T12:02:55;92522.25;;;24.79;67.79
59367;BME280;45163;47.690;11.770;2023-04-23T12:07:53;92519.94;;;25.84;56.48
59367;BME280;45163;47.690;11.770;2023-04-23T12:10:22;92509.13;;;25.80;60.58
59367;BME280;45163;47.690;11.770;2023-04-23T12:12:52;92505.41;;;26.83;57.33
59367;BME280;45163;47.690;11.770;2023-04-23T12:15:19;92502.69;;;27.62;50.33
59367;BME280;45163;47.690;11.770;2023-04-23T12:17:49;92492.41;;;27.72;49.16
59367;BME280;45163;47.690;11.770;2023-04-23T12:20:20;92494.06;;;27.67;48.48
59367;BME280;45163;47.690;11.770;2023-04-23T12:22:47;92492.16;;;27.06;48.13
59367;BME280;45163;47.690;11.770;2023-04-23T12:25:13;92489.91;;;26.97;47.09
59367;BME280;45163;47.690;11.770;2023-04-23T12:27:39;92480.97;;;28.50;43.68
59367;BME280;45163;47.690;11.770;2023-04-23T12:30:07;92478.56;;;28.14;44.12
59367;BME280;45163;47.690;11.770;2023-04-23T12:32:34;92477.72;;;27.41;43.62
59367;BME280;45163;47.690;11.770;2023-04-23T12:35:00;92480.53;;;25.67;51.47
59367;BME280;45163;47.690;11.770;2023-04-23T12:37:28;92478.41;;;26.03;51.71
59367;BME280;45163;47.690;11.770;2023-04-23T12:39:55;92472.16;;;26.87;47.74
59367;BME280;45163;47.690;11.770;2023-04-23T12:42:24;92466.09;;;28.00;46.23
59367;BME280;45163;47.690;11.770;2023-04-23T12:44:50;92459.63;;;27.90;43.07
59367;BME280;45163;47.690;11.770;2023-04-23T12:47:17;92447.72;;;28.47;41.71
59367;BME280;45163;47.690;11.770;2023-04-23T12:49:47;92446.53;;;28.50;41.21
59367;BME280;45163;47.690;11.770;2023-04-23T12:52:15;92433.91;;;28.34;42.77